Time;durP1;ratioP1;P1;durP2;ratioP2;P2;SDS_P1;SDS_P2;PMS_P1;PMS_P2;Temp;Humidity;BMP_temperature;BMP_pressure;BME280_temperature;BME280_humidity;BME280_pressure;Samples;Min_cycle;Max_cycle;Signal;HPM_P1;HPM_P2
2022/05/27 00:01:35;;;;;;;15.47;7.90;;;;;;;12.76;94.42;101163.16;5033659;28;20444;-48
2022/05/27 00:04:04;;;;;;;8.67;7.87;;;;;;;12.74;94.65;101165.22;5033363;28;20456;-48
2022/05/27 00:06:32;;;;;;;9.97;7.00;;;;;;;12.72;94.83;101164.56;5033551;28;20828;-48
2022/05/27 00:09:00;;;;;;;12.50;7.10;;;;;;;12.68;95.05;101160.66;5033586;28;20476;-45
2022/05/27 00:11:27;;;;;;;18.83;7.37;;;;;;;12.64;95.54;101169.28;5033304;28;20440;-46
2022/05/27 00:13:55;;;;;;;15.37;7.50;;;;;;;12.57;96.43;101169.22;5033025;28;20471;-48
2022/05/27 00:16:24;;;;;;;9.10;7.77;;;;;;;12.53;96.64;101170.69;5033667;28;20455;-48
2022/05/27 00:18:52;;;;;;;14.30;9.00;;;;;;;12.48;96.42;101159.75;5033446;28;20438;-48
2022/05/27 00:21:20;;;;;;;17.23;8.80;;;;;;;12.46;96.67;101171.66;5033112;28;20432;-46
2022/05/27 00:23:48;;;;;;;10.30;7.90;;;;;;;12.40;96.22;101173.28;5033053;28;20474;-48
2022/05/27 00:26:15;;;;;;;8.40;7.10;;;;;;;12.41;96.21;101174.09;5032960;28;20463;-48
2022/05/27 00:28:43;;;;;;;19.33;7.80;;;;;;;12.37;96.16;101175.50;5033203;28;20483;-46
2022/05/27 00:31:10;;;;;;;12.80;7.50;;;;;;;12.37;96.57;101164.81;5032842;28;20428;-49
2022/05/27 00:33:40;;;;;;;16.40;8.90;;;;;;;12.32;97.24;101165.41;5032766;28;20551;-46
2022/05/27 00:36:09;;;;;;;12.17;8.27;;;;;;;12.29;97.93;101162.31;5033001;28;20448;-49
2022/05/27 00:38:38;;;;;;;14.37;6.93;;;;;;;12.24;98.44;101170.94;5033120;28;20432;-46
2022/05/27 00:41:06;;;;;;;10.40;7.40;;;;;;;12.22;98.51;101167.63;5032850;28;20435;-47
2022/05/27 00:43:33;;;;;;;16.60;7.97;;;;;;;12.18;98.50;101169.06;5032406;28;21022;-46
2022/05/27 00:46:05;;;;;;;13.47;7.27;;;;;;;12.15;98.99;101162.25;5032670;28;20460;-49
2022/05/27 00:48:37;;;;;;;17.93;7.13;;;;;;;12.10;99.08;101166.50;5032752;28;20472;-45
2022/05/27 00:51:12;;;;;;;11.73;7.37;;;;;;;12.03;99.43;101161.16;5032751;28;20783;-44
2022/05/27 00:53:46;;;;;;;17.03;7.80;;;;;;;12.01;98.99;101171.19;5032442;28;20459;-48
2022/05/27 00:56:16;;;;;;;10.07;6.93;;;;;;;11.92;99.52;101168.84;5032532;28;20452;-48
2022/05/27 00:58:47;;;;;;;19.87;7.07;;;;;;;11.89;99.58;101177.25;5032792;28;20428;-45
2022/05/27 01:01:15;;;;;;;16.43;5.87;;;;;;;11.84;99.43;101182.38;5032409;28;20774;-46
2022/05/27 01:03:44;;;;;;;15.77;6.87;;;;;;;11.80;99.68;101184.59;5031953;28;20483;-46
2022/05/27 01:06:13;;;;;;;12.00;7.73;;;;;;;11.78;99.36;101183.16;5032629;28;20543;-46
2022/05/27 01:08:44;;;;;;;19.10;6.97;;;;;;;11.76;99.40;101187.88;5032447;28;20478;-46
2022/05/27 01:11:21;;;;;;;12.13;6.73;;;;;;;11.73;99.43;101193.59;5032260;28;21013;-45
2022/05/27 01:14:03;;;;;;;12.37;6.67;;;;;;;11.65;99.78;101192.66;5032026;28;20464;-47
2022/05/27 01:16:40;;;;;;;17.07;7.10;;;;;;;11.61;99.63;101188.75;5032077;28;20444;-47
2022/05/27 01:22:42;;;;;;;17.70;7.80;;;;;;;11.49;99.94;101189.44;5031505;28;20456;-47
2022/05/27 01:25:33;;;;;;;14.77;6.30;;;;;;;11.41;99.81;101198.41;5032370;28;20421;-51
2022/05/27 01:28:25;;;;;;;13.00;7.40;;;;;;;11.37;99.96;101202.50;5032173;28;20432;-46
2022/05/27 01:31:01;;;;;;;11.33;6.10;;;;;;;11.30;99.62;101198.91;5032012;28;20451;-49
2022/05/27 01:33:37;;;;;;;11.43;5.50;;;;;;;11.33;99.71;101203.88;5031741;28;20479;-46
2022/05/27 01:36:14;;;;;;;13.30;7.03;;;;;;;11.30;99.68;101203.44;5032111;28;20454;-48
2022/05/27 01:38:45;;;;;;;8.93;5.80;;;;;;;11.30;99.71;101198.91;5032036;28;20447;-46
2022/05/27 01:41:21;;;;;;;8.97;6.53;;;;;;;11.27;99.61;101201.97;5031728;28;20435;-46
2022/05/27 01:43:53;;;;;;;8.23;6.93;;;;;;;11.21;99.30;101204.56;5031619;28;20464;-49
2022/05/27 01:46:26;;;;;;;15.60;6.60;;;;;;;11.15;99.06;101211.50;5031795;28;21072;-48
2022/05/27 01:49:03;;;;;;;14.17;6.70;;;;;;;11.08;99.31;101216.75;5031933;28;20439;-45
2022/05/27 01:51:37;;;;;;;12.97;5.57;;;;;;;11.02;99.19;101209.50;5031573;28;20910;-47
2022/05/27 01:54:11;;;;;;;10.67;5.90;;;;;;;10.97;99.12;101211.91;5033023;28;20463;-48
2022/05/27 01:56:45;;;;;;;9.20;6.67;;;;;;;10.93;99.45;101213.28;5038399;28;20447;-45
2022/05/27 01:59:17;;;;;;;14.27;6.00;;;;;;;10.90;99.48;101210.19;5038504;28;20443;-45
2022/05/27 02:01:51;;;;;;;21.03;7.07;;;;;;;10.86;99.27;101216.91;5038281;28;20431;-49
2022/05/27 02:04:23;;;;;;;6.50;5.93;;;;;;;10.83;99.29;101214.59;5038022;28;20490;-49
2022/05/27 02:06:58;;;;;;;9.90;5.87;;;;;;;10.78;99.44;101219.69;5038503;28;20813;-46
2022/05/27 02:09:29;;;;;;;13.97;6.50;;;;;;;10.81;99.50;101217.44;5038329;28;20895;-45
2022/05/27 02:12:03;;;;;;;15.40;7.30;;;;;;;10.82;99.47;101218.28;5038306;28;20443;-47
2022/05/27 02:14:38;;;;;;;11.87;6.00;;;;;;;10.82;99.91;101218.28;5037921;28;20463;-50
2022/05/27 02:17:11;;;;;;;7.20;5.70;;;;;;;10.76;99.16;101217.19;5038355;28;20454;-45
2022/05/27 02:19:44;;;;;;;14.17;5.93;;;;;;;10.72;99.14;101212.41;5038460;28;20468;-46
2022/05/27 02:22:17;;;;;;;10.60;5.80;;;;;;;10.68;99.21;101219.97;5037569;28;20458;-44
2022/05/27 02:24:48;;;;;;;9.20;6.23;;;;;;;10.69;98.95;101220.78;5038181;28;20450;-45
2022/05/27 02:27:21;;;;;;;10.00;6.13;;;;;;;10.61;99.06;101216.38;5038318;28;20476;-46
2022/05/27 02:29:52;;;;;;;13.10;5.73;;;;;;;10.55;99.17;101238.44;5038211;28;20475;-46
2022/05/27 02:32:24;;;;;;;13.77;7.43;;;;;;;10.50;99.37;101230.19;5037730;28;20428;-47
2022/05/27 02:35:09;;;;;;;18.70;7.20;;;;;;;10.48;99.47;101227.69;5038163;28;20478;-47
2022/05/27 02:37:41;;;;;;;11.73;6.13;;;;;;;10.48;99.51;101229.53;5037849;28;20455;-49
2022/05/27 02:40:13;;;;;;;6.60;5.87;;;;;;;10.44;99.57;101242.41;5038163;28;20794;-44
2022/05/27 02:42:49;;;;;;;18.37;6.13;;;;;;;10.43;99.49;101238.06;5037703;28;20463;-47
2022/05/27 02:45:29;;;;;;;16.93;7.40;;;;;;;10.43;99.51;101227.41;5038132;28;20846;-45
2022/05/27 02:48:10;;;;;;;13.30;6.63;;;;;;;10.43;99.50;101230.09;5037848;28;20928;-45
2022/05/27 02:50:43;;;;;;;15.73;6.50;;;;;;;10.44;99.72;101225.56;5037785;28;20474;-45
2022/05/27 02:53:23;;;;;;;17.57;5.90;;;;;;;10.48;99.65;101226.88;5037671;28;20463;-47
2022/05/27 02:56:02;;;;;;;19.43;6.50;;;;;;;10.49;99.74;101239.19;5037729;28;20957;-43
2022/05/27 02:58:31;;;;;;;12.67;6.23;;;;;;;10.51;99.70;101234.50;5037794;28;20458;-45
2022/05/27 03:00:59;;;;;;;14.90;6.93;;;;;;;10.53;99.79;101227.13;5038261;28;20431;-52
2022/05/27 03:03:28;;;;;;;17.33;6.67;;;;;;;10.57;99.65;101226.56;5037525;28;20534;-49
2022/05/27 03:06:07;;;;;;;20.10;8.53;;;;;;;10.61;99.47;101227.03;5035313;28;20464;-48
2022/05/27 03:08:44;;;;;;;16.20;6.63;;;;;;;10.65;99.30;101238.16;5034925;28;20432;-45
2022/05/27 03:11:15;;;;;;;19.90;8.00;;;;;;;10.71;99.28;101234.75;5034349;28;20467;-47
2022/05/27 03:13:57;;;;;;;18.03;7.13;;;;;;;10.77;99.22;101239.34;5034114;28;21015;-51
2022/05/27 03:16:39;;;;;;;13.10;7.27;;;;;;;10.84;99.18;101237.63;5034539;28;20448;-47
2022/05/27 03:19:23;;;;;;;15.10;6.17;;;;;;;10.87;98.43;101239.91;5034499;28;20948;-45
2022/05/27 03:21:58;;;;;;;19.87;7.23;;;;;;;10.94;98.19;101246.13;5034346;28;20429;-45
2022/05/27 03:24:39;;;;;;;13.90;7.27;;;;;;;10.96;97.72;101239.59;5034117;28;20468;-48
2022/05/27 03:27:17;;;;;;;11.57;6.50;;;;;;;11.01;97.58;101236.38;5034533;28;20452;-46
2022/05/27 03:29:51;;;;;;;12.47;6.90;;;;;;;10.97;96.71;101245.75;5034351;28;20459;-49
2022/05/27 03:32:29;;;;;;;14.93;6.57;;;;;;;11.00;96.79;101248.06;5033832;28;20428;-44
2022/05/27 03:35:03;;;;;;;13.80;8.33;;;;;;;11.05;96.32;101243.00;5034306;28;20793;-47
2022/05/27 03:37:36;;;;;;;13.53;6.30;;;;;;;11.15;96.21;101242.69;5034081;28;20546;-50
2022/05/27 03:40:09;;;;;;;21.20;7.17;;;;;;;11.19;95.58;101242.13;5033977;28;20424;-47
2022/05/27 03:42:39;;;;;;;14.20;6.37;;;;;;;11.23;95.28;101248.72;5033744;28;20460;-45
2022/05/27 03:45:10;;;;;;;16.70;6.70;;;;;;;11.29;95.17;101242.66;5034129;28;20436;-49
2022/05/27 03:47:39;;;;;;;18.47;7.83;;;;;;;11.33;94.53;101240.44;5033705;28;20471;-45
2022/05/27 03:50:11;;;;;;;12.60;5.60;;;;;;;11.40;94.33;101244.84;5034014;28;20487;-48
2022/05/27 03:52:42;;;;;;;17.80;6.40;;;;;;;11.46;94.39;101259.28;5033227;28;20463;-49
2022/05/27 03:55:12;;;;;;;10.23;5.97;;;;;;;11.49;93.88;101249.03;5033727;28;20963;-45
2022/05/27 03:57:40;;;;;;;19.17;7.50;;;;;;;11.44;92.47;101243.41;5033813;28;20452;-48
2022/05/27 04:00:10;;;;;;;18.17;7.77;;;;;;;11.54;92.77;101240.44;5033776;28;20435;-47
2022/05/27 04:02:38;;;;;;;20.30;8.00;;;;;;;11.54;91.95;101241.28;5033213;28;20464;-49
2022/05/27 04:05:10;;;;;;;17.00;7.50;;;;;;;11.62;92.69;101249.16;5033512;28;20432;-47
2022/05/27 04:07:38;;;;;;;16.73;7.70;;;;;;;11.68;92.33;101252.91;5033522;28;20459;-48
2022/05/27 04:10:08;;;;;;;11.00;6.03;;;;;;;11.72;92.01;101254.22;5033506;28;20782;-46
2022/05/27 04:12:36;;;;;;;14.90;8.00;;;;;;;11.77;90.88;101240.28;5033138;28;21021;-47
2022/05/27 04:15:06;;;;;;;14.50;6.73;;;;;;;11.83;89.59;101250.19;5033543;28;20806;-47
2022/05/27 04:17:34;;;;;;;16.37;7.17;;;;;;;11.94;89.10;101247.00;5032913;28;20456;-49
2022/05/27 04:20:04;;;;;;;15.30;7.43;;;;;;;12.24;89.31;101242.31;5033430;28;20531;-49
2022/05/27 04:22:34;;;;;;;13.03;6.20;;;;;;;12.98;87.71;101240.66;5032698;28;20456;-47
2022/05/27 04:25:02;;;;;;;13.53;6.80;;;;;;;14.19;83.36;101232.38;5033201;28;20929;-46
2022/05/27 04:27:29;;;;;;;15.50;5.30;;;;;;;15.05;73.56;101236.53;5033141;28;20445;-46
2022/05/27 04:29:57;;;;;;;12.07;5.93;;;;;;;15.99;73.18;101237.38;5032922;28;20440;-47
2022/05/27 04:32:25;;;;;;;14.90;6.20;;;;;;;16.83;70.88;101233.25;5032578;28;20475;-46
2022/05/27 04:34:54;;;;;;;17.27;6.93;;;;;;;17.71;66.87;101239.75;5032979;28;20443;-47
2022/05/27 04:37:24;;;;;;;10.50;5.93;;;;;;;18.39;63.03;101242.72;5033090;28;20494;-48
2022/05/27 04:39:53;;;;;;;15.23;6.47;;;;;;;18.76;60.79;101240.56;5032980;28;20937;-47
2022/05/27 04:42:21;;;;;;;12.97;6.40;;;;;;;19.30;53.74;101233.81;5032239;28;20430;-47
2022/05/27 04:44:49;;;;;;;13.60;7.47;;;;;;;20.02;57.03;101237.56;5032718;28;20442;-49
2022/05/27 04:47:16;;;;;;;9.93;6.63;;;;;;;20.45;55.26;101239.59;5032610;28;20469;-50
2022/05/27 04:49:54;;;;;;;9.37;6.67;;;;;;;20.88;51.64;101230.66;5032862;28;20427;-50
2022/05/27 04:52:25;;;;;;;12.20;6.67;;;;;;;21.45;53.93;101234.59;5032284;28;20475;-48
2022/05/27 04:54:55;;;;;;;11.87;6.60;;;;;;;22.00;49.85;101238.91;5032661;28;20431;-50
2022/05/27 04:57:28;;;;;;;12.43;7.33;;;;;;;22.35;51.42;101231.00;5032978;28;20451;-51
2022/05/27 04:59:55;;;;;;;10.43;6.77;;;;;;;22.95;49.20;101235.97;5032642;28;20432;-50
2022/05/27 05:02:24;;;;;;;12.77;7.03;;;;;;;22.68;47.96;101235.28;5032004;28;20794;-46
2022/05/27 05:04:52;;;;;;;7.97;5.63;;;;;;;22.88;43.21;101221.00;5032505;28;20455;-48
2022/05/27 05:07:23;;;;;;;16.43;6.50;;;;;;;23.15;47.22;101237.91;5032579;28;20488;-48
2022/05/27 05:09:51;;;;;;;12.30;5.97;;;;;;;23.44;43.16;101228.25;5032368;28;20614;-49
2022/05/27 05:12:22;;;;;;;11.70;5.70;;;;;;;23.49;41.05;101232.88;5031595;28;20476;-49
2022/05/27 05:14:51;;;;;;;13.60;6.13;;;;;;;23.52;44.97;101227.69;5032443;28;20428;-47
2022/05/27 05:17:20;;;;;;;10.40;5.97;;;;;;;23.82;39.10;101229.63;5032286;28;20451;-52
2022/05/27 05:19:48;;;;;;;9.13;5.57;;;;;;;23.72;41.49;101231.50;5032184;28;20431;-48
2022/05/27 05:22:16;;;;;;;14.90;5.83;;;;;;;24.25;44.06;101236.44;5031402;28;20428;-47
2022/05/27 05:24:44;;;;;;;11.00;5.23;;;;;;;24.14;42.99;101234.81;5032453;28;20431;-51
2022/05/27 05:27:11;;;;;;;14.70;6.03;;;;;;;24.13;42.11;101238.66;5032187;28;20462;-47
2022/05/27 05:29:40;;;;;;;14.37;6.00;;;;;;;23.90;44.31;101231.78;5031405;28;20506;-47
2022/05/27 05:32:08;;;;;;;14.30;6.67;;;;;;;23.82;39.72;101236.97;5031395;28;20471;-51
2022/05/27 05:34:36;;;;;;;12.30;5.70;;;;;;;23.58;43.67;101239.41;5032054;28;20431;-46
2022/05/27 05:37:04;;;;;;;10.53;5.73;;;;;;;23.62;44.24;101230.41;5032130;28;20479;-50
2022/05/27 05:39:32;;;;;;;7.87;5.53;;;;;;;23.79;41.11;101238.34;5031925;28;20450;-47
2022/05/27 05:42:02;;;;;;;11.83;6.30;;;;;;;23.49;42.71;101233.69;5031916;28;20430;-51
2022/05/27 05:44:30;;;;;;;11.87;6.13;;;;;;;22.55;41.54;101230.28;5031387;28;20474;-47
2022/05/27 05:46:59;;;;;;;16.10;6.83;;;;;;;21.84;43.01;101234.41;5031706;28;20470;-52
2022/05/27 05:49:27;;;;;;;14.53;6.50;;;;;;;19.13;49.22;101243.78;5031963;28;20440;-47
2022/05/27 05:51:57;;;;;;;15.23;7.43;;;;;;;18.63;51.22;101232.75;5022125;28;20994;-49
2022/05/27 05:54:27;;;;;;;13.20;6.63;;;;;;;19.99;50.46;101227.22;5011801;28;20466;-52
2022/05/27 05:56:55;;;;;;;20.57;8.07;;;;;;;20.26;48.87;101240.94;5011946;28;20455;-48
2022/05/27 05:59:23;;;;;;;17.17;6.73;;;;;;;21.34;47.54;101243.72;5011530;28;20432;-51
2022/05/27 06:01:51;;;;;;;17.27;7.50;;;;;;;21.74;45.85;101240.59;5019481;28;20427;-47
2022/05/27 06:04:20;;;;;;;10.93;6.10;;;;;;;20.06;46.31;101233.28;5019764;28;20470;-50
2022/05/27 06:06:47;;;;;;;17.70;7.50;;;;;;;20.12;44.66;101226.88;5011963;28;20455;-48
2022/05/27 06:09:15;;;;;;;13.80;6.90;;;;;;;20.63;43.52;101238.47;5045622;28;20442;-50
2022/05/27 06:11:42;;;;;;;11.10;6.90;;;;;;;20.74;44.57;101238.38;5034560;28;20482;-48
2022/05/27 06:14:10;;;;;;;9.90;5.70;;;;;;;21.55;42.64;101247.44;5030768;28;20467;-50
2022/05/27 06:16:38;;;;;;;13.10;6.60;;;;;;;20.56;44.19;101232.41;5031399;28;20458;-50
2022/05/27 06:19:05;;;;;;;9.27;6.57;;;;;;;21.08;43.55;101246.38;5031282;28;20522;-49
2022/05/27 06:21:34;;;;;;;13.23;6.87;;;;;;;20.81;43.83;101235.47;5031343;28;20431;-51
2022/05/27 06:24:03;;;;;;;12.07;5.87;;;;;;;20.20;44.83;101237.28;5030891;28;20468;-47
2022/05/27 06:26:31;;;;;;;11.43;5.70;;;;;;;19.09;47.31;101232.63;5030903;28;20451;-50
2022/05/27 06:34:30;;;;;;;14.40;6.30;;;;;;;18.56;49.76;101245.56;5030906;28;20483;-48
2022/05/27 06:37:03;;;;;;;16.10;5.83;;;;;;;18.61;47.38;101241.06;5031420;28;20454;-48
2022/05/27 06:39:34;;;;;;;11.87;5.97;;;;;;;18.60;46.93;101241.34;5031555;28;20438;-49
2022/05/27 06:42:03;;;;;;;12.53;6.50;;;;;;;19.17;47.55;101239.53;5034370;28;20458;-46
2022/05/27 06:44:50;;;;;;;14.23;6.20;;;;;;;19.69;44.25;101235.66;5034324;28;20451;-50
2022/05/27 06:47:18;;;;;;;10.17;6.20;;;;;;;18.79;47.79;101230.13;5035057;28;20465;-47
2022/05/27 06:49:46;;;;;;;14.17;6.10;;;;;;;19.11;48.14;101241.31;5034937;28;20855;-50
2022/05/27 06:52:15;;;;;;;10.93;6.53;;;;;;;18.22;48.49;101241.78;5034136;28;20988;-48
2022/05/27 06:54:43;;;;;;;12.47;6.47;;;;;;;18.44;49.68;101242.84;5034968;28;20450;-48
2022/05/27 06:57:11;;;;;;;13.93;6.10;;;;;;;19.04;47.50;101235.22;5034671;28;20794;-49
2022/05/27 06:59:39;;;;;;;14.93;6.40;;;;;;;19.91;45.43;101237.63;5034871;28;20925;-49
2022/05/27 07:02:07;;;;;;;9.63;5.43;;;;;;;19.74;45.57;101234.94;5033867;28;20428;-51
2022/05/27 07:04:35;;;;;;;13.37;6.30;;;;;;;19.38;44.26;101228.06;5034728;28;20437;-47
2022/05/27 07:07:05;;;;;;;15.93;6.23;;;;;;;19.37;46.13;101242.63;5034676;28;20546;-47
2022/05/27 07:09:36;;;;;;;10.10;5.33;;;;;;;19.25;46.16;101231.88;5034581;28;20443;-47
2022/05/27 07:12:06;;;;;;;18.13;6.80;;;;;;;18.31;49.55;101244.97;5034117;28;20475;-49
2022/05/27 07:14:34;;;;;;;12.67;5.23;;;;;;;18.86;46.39;101248.09;5034252;28;20447;-48
2022/05/27 07:17:01;;;;;;;14.80;6.93;;;;;;;19.24;46.22;101245.59;5034627;28;20956;-46
2022/05/27 07:19:39;;;;;;;9.07;5.63;;;;;;;19.57;43.15;101243.03;5034387;28;20432;-45
2022/05/27 07:22:07;;;;;;;15.87;5.80;;;;;;;19.02;45.30;101248.19;5033611;28;20439;-46
2022/05/27 07:24:37;;;;;;;10.53;6.60;;;;;;;18.34;47.57;101255.28;5034269;28;20435;-45
2022/05/27 07:27:05;;;;;;;13.53;7.40;;;;;;;17.47;52.64;101276.53;5033959;28;20454;-48
2022/05/27 07:29:33;;;;;;;12.03;7.57;;;;;;;16.66;53.92;101259.97;5034399;28;20432;-51
2022/05/27 07:32:01;;;;;;;14.53;8.20;;;;;;;15.49;59.60;101265.25;5033933;28;20502;-51
2022/05/27 07:34:29;;;;;;;15.63;8.27;;;;;;;14.35;63.38;101256.97;5033617;28;20467;-50
2022/05/27 07:36:57;;;;;;;10.13;8.40;;;;;;;15.01;66.55;101255.97;5033994;28;20548;-49
2022/05/27 07:39:25;;;;;;;17.77;8.33;;;;;;;15.55;64.66;101266.25;5034098;28;20962;-50
2022/05/27 07:41:54;;;;;;;14.83;8.53;;;;;;;16.27;63.20;101253.09;5033056;28;20434;-46
2022/05/27 07:44:21;;;;;;;13.60;8.03;;;;;;;17.13;60.79;101247.59;5033233;28;20472;-46
2022/05/27 07:46:52;;;;;;;13.47;9.33;;;;;;;17.78;57.57;101242.31;5033381;28;20463;-50
2022/05/27 07:49:20;;;;;;;14.07;8.40;;;;;;;18.13;57.07;101235.06;5033802;28;20439;-47
2022/05/27 07:52:05;;;;;;;13.70;8.37;;;;;;;18.24;55.92;101235.09;5032469;28;20424;-48
2022/05/27 07:54:33;;;;;;;15.70;9.10;;;;;;;18.33;55.98;101237.44;5033639;28;20526;-47
2022/05/27 07:57:03;;;;;;;19.60;9.10;;;;;;;18.19;54.50;101226.88;5033419;28;20964;-50
2022/05/27 07:59:32;;;;;;;14.20;7.70;;;;;;;18.38;54.40;101224.06;5033452;28;20428;-45
2022/05/27 08:02:00;;;;;;;15.67;7.77;;;;;;;18.77;55.12;101223.31;5033358;28;20446;-45
2022/05/27 08:04:27;;;;;;;12.70;7.10;;;;;;;19.11;52.97;101229.69;5033010;28;20481;-46
2022/05/27 08:06:55;;;;;;;17.47;7.93;;;;;;;18.41;53.31;101228.97;5033295;28;20960;-45
2022/05/27 08:09:22;;;;;;;12.60;7.50;;;;;;;16.76;55.90;101243.25;5033421;28;20889;-46
2022/05/27 08:11:50;;;;;;;14.30;7.50;;;;;;;15.79;60.38;101260.94;5033375;28;20805;-49
2022/05/27 08:14:19;;;;;;;14.37;7.73;;;;;;;14.36;67.55;101290.00;5032874;28;20794;-45
2022/05/27 08:16:47;;;;;;;11.90;6.70;;;;;;;13.29;70.25;101287.34;5033216;28;20454;-49
2022/05/27 08:19:15;;;;;;;8.43;6.53;;;;;;;13.28;70.15;101266.13;5033239;28;20471;-47
2022/05/27 08:21:43;;;;;;;8.77;6.97;;;;;;;13.43;71.51;101266.78;5033147;28;20510;-47
2022/05/27 08:24:10;;;;;;;7.07;6.30;;;;;;;13.48;69.06;101255.47;5032555;28;20482;-45
2022/05/27 08:26:39;;;;;;;5.90;5.40;;;;;;;13.70;68.75;101249.75;5033192;28;20458;-46
2022/05/27 08:29:08;;;;;;;6.83;6.23;;;;;;;13.88;65.44;101251.81;5033004;28;20436;-47
2022/05/27 08:31:38;;;;;;;9.60;6.27;;;;;;;14.26;63.36;101239.41;5032525;28;20516;-45
2022/05/27 08:39:46;;;;;;;9.80;6.27;;;;;;;15.60;59.42;101244.91;5032775;28;20793;-45
2022/05/27 08:42:25;;;;;;;8.00;5.60;;;;;;;15.77;58.07;101240.69;5032078;28;20432;-46
2022/05/27 08:45:01;;;;;;;6.27;5.77;;;;;;;15.72;59.60;101235.94;5032833;28;20438;-45
2022/05/27 08:47:35;;;;;;;11.90;6.47;;;;;;;15.67;58.05;101235.78;5032382;28;20485;-44
2022/05/27 08:50:10;;;;;;;10.30;6.20;;;;;;;15.76;59.08;101237.16;5032723;28;20455;-47
2022/05/27 08:52:42;;;;;;;9.67;6.80;;;;;;;15.70;58.76;101239.91;5032166;28;20470;-46
2022/05/27 09:01:12;;;;;;;11.23;5.90;;;;;;;16.01;59.31;101218.31;5032871;28;20805;-47
2022/05/27 09:03:50;;;;;;;11.90;6.43;;;;;;;16.31;58.45;101210.38;5029588;28;20460;-48
2022/05/27 09:06:24;;;;;;;12.83;7.10;;;;;;;15.40;59.69;101218.97;5031760;28;20456;-48
2022/05/27 09:08:59;;;;;;;9.40;5.40;;;;;;;14.84;62.36;101252.94;5032578;28;20456;-48
2022/05/27 09:11:41;;;;;;;6.80;4.97;;;;;;;14.79;61.67;101250.03;5031953;28;20480;-49
2022/05/27 09:14:14;;;;;;;8.27;5.93;;;;;;;15.36;60.95;101259.91;5031779;28;20556;-47
2022/05/27 09:16:59;;;;;;;10.40;5.73;;;;;;;15.83;59.47;101262.13;5032420;28;20965;-45
2022/05/27 09:19:54;;;;;;;6.77;5.80;;;;;;;16.09;57.72;101254.91;5032262;28;20428;-45
2022/05/27 09:22:31;;;;;;;9.00;6.90;;;;;;;16.38;59.20;101255.03;5031782;28;20428;-47
2022/05/27 09:25:11;;;;;;;19.43;6.10;;;;;;;16.51;59.35;101251.41;5032250;28;20442;-49
2022/05/27 09:27:45;;;;;;;8.63;6.60;;;;;;;16.60;60.63;101255.47;5032412;28;20463;-44
2022/05/27 09:30:15;;;;;;;15.80;6.37;;;;;;;16.79;58.82;101256.28;5031799;28;20463;-45
2022/05/27 09:32:49;;;;;;;16.37;7.60;;;;;;;16.29;58.94;101245.59;5031764;28;20467;-47
2022/05/27 09:35:21;;;;;;;11.37;8.63;;;;;;;16.07;58.91;101254.31;5032373;28;20917;-50
2022/05/27 09:38:14;;;;;;;8.47;5.80;;;;;;;16.45;58.02;101263.06;5031799;28;20964;-48
2022/05/27 09:40:46;;;;;;;14.87;7.47;;;;;;;15.92;59.83;101259.97;5032171;28;20535;-47
2022/05/27 09:43:18;;;;;;;15.50;7.30;;;;;;;15.79;61.15;101258.25;5031623;28;20492;-51
2022/05/27 09:45:51;;;;;;;12.17;7.00;;;;;;;15.37;61.94;101257.03;5031776;28;20460;-48
2022/05/27 09:48:19;;;;;;;18.27;7.73;;;;;;;15.03;62.44;101253.88;5032023;28;20457;-48
2022/05/27 09:50:49;;;;;;;12.80;7.77;;;;;;;15.10;62.81;101255.50;5031632;28;20822;-46
2022/05/27 09:53:19;;;;;;;9.37;6.57;;;;;;;15.41;61.80;101250.16;5031344;28;20988;-47
2022/05/27 09:55:53;;;;;;;14.63;6.50;;;;;;;15.60;61.90;101256.50;5031904;28;20498;-45
2022/05/27 09:58:25;;;;;;;15.57;7.63;;;;;;;15.96;63.80;101253.13;5031991;28;20440;-50
2022/05/27 10:00:53;;;;;;;16.97;7.13;;;;;;;16.17;59.96;101252.75;5031645;28;20460;-49
2022/05/27 10:03:25;;;;;;;13.30;6.63;;;;;;;16.30;59.32;101241.88;5031134;28;21019;-46
2022/05/27 10:05:57;;;;;;;15.20;6.70;;;;;;;16.18;60.30;101240.13;5031977;28;20437;-51
2022/05/27 10:08:36;;;;;;;10.67;6.23;;;;;;;16.47;59.28;101228.66;5031070;28;20443;-52
2022/05/27 10:11:22;;;;;;;13.83;6.50;;;;;;;16.85;55.93;101221.19;5047534;28;20438;-46
2022/05/27 10:14:11;;;;;;;14.80;5.50;;;;;;;17.05;53.10;101234.44;5050995;28;20821;-50
2022/05/27 10:16:41;;;;;;;13.80;6.50;;;;;;;17.36;54.41;101233.38;5054466;28;20446;-46
2022/05/27 10:19:13;;;;;;;11.77;6.13;;;;;;;17.30;53.88;101237.81;5051575;28;20440;-52
2022/05/27 10:21:54;;;;;;;15.70;6.03;;;;;;;17.03;53.76;101231.94;5035097;28;20430;-49
2022/05/27 10:24:26;;;;;;;11.03;5.80;;;;;;;17.14;53.55;101233.06;5034367;28;20475;-44
2022/05/27 10:27:09;;;;;;;11.77;6.43;;;;;;;16.84;55.07;101235.72;5033581;28;20452;-48
2022/05/27 10:29:51;;;;;;;11.30;6.30;;;;;;;16.71;58.71;101237.72;5035300;28;20434;-53
2022/05/27 10:32:28;;;;;;;14.07;5.67;;;;;;;17.30;56.57;101236.97;5034767;28;20940;-52
2022/05/27 10:34:56;;;;;;;11.20;6.10;;;;;;;17.42;54.35;101205.50;5035557;28;21201;-47
2022/05/27 10:37:36;;;;;;;16.20;6.23;;;;;;;17.66;54.62;101231.50;5035270;28;20468;-48
2022/05/27 10:40:17;;;;;;;8.40;5.00;;;;;;;17.24;50.36;101229.81;5035305;28;20458;-47
2022/05/27 10:42:56;;;;;;;8.53;5.63;;;;;;;17.17;55.78;101242.56;5034646;28;20463;-49
2022/05/27 10:45:31;;;;;;;14.20;6.10;;;;;;;17.31;53.88;101244.84;5035324;28;20423;-48
2022/05/27 10:48:30;;;;;;;10.93;5.27;;;;;;;17.60;52.77;101232.41;5035358;28;20522;-48
2022/05/27 10:51:07;;;;;;;12.87;5.40;;;;;;;17.33;55.09;101237.34;5035238;28;20431;-52
2022/05/27 10:53:52;;;;;;;12.73;5.33;;;;;;;17.21;52.89;101230.25;5034055;28;20463;-50
2022/05/27 10:56:32;;;;;;;10.13;5.97;;;;;;;17.03;53.25;101233.81;5035299;28;20444;-47
2022/05/27 11:02:13;;;;;;;11.17;6.73;;;;;;;16.08;60.94;101234.41;5034899;28;20433;-47
2022/05/27 11:05:17;;;;;;;13.03;7.00;;;;;;;15.72;61.15;101232.44;5034702;28;20439;-46
2022/05/27 11:08:07;;;;;;;16.60;5.80;;;;;;;15.92;57.23;101235.78;5027478;28;20459;-53
2022/05/27 11:10:46;;;;;;;13.00;7.37;;;;;;;14.78;64.67;101235.00;5034664;28;20432;-50
2022/05/27 11:16:36;;;;;;;21.37;18.10;;;;;;;12.72;77.74;101278.84;5034249;28;20455;-45
2022/05/27 11:19:25;;;;;;;21.57;19.93;;;;;;;12.26;86.92;101299.09;5034633;28;20519;-52
2022/05/27 11:22:08;;;;;;;16.67;15.17;;;;;;;11.95;89.11;101289.56;5033858;28;20809;-50
2022/05/27 11:25:22;;;;;;;17.13;15.53;;;;;;;12.10;91.70;101276.94;5034010;28;20420;-48
2022/05/27 11:28:05;;;;;;;17.70;13.60;;;;;;;12.81;93.26;101274.97;4991427;28;20588;-49
2022/05/27 11:30:44;;;;;;;13.60;12.43;;;;;;;13.10;89.81;101261.34;4992386;28;20414;-52
2022/05/27 11:33:34;;;;;;;18.50;11.73;;;;;;;13.64;88.42;101257.75;5018715;28;20460;-51
2022/05/27 11:36:24;;;;;;;13.13;9.00;;;;;;;13.70;81.71;101256.94;5034094;28;20507;-50
2022/05/27 11:39:18;;;;;;;17.87;7.90;;;;;;;14.20;81.56;101242.94;5034394;28;20432;-47
2022/05/27 11:41:57;;;;;;;11.60;7.00;;;;;;;14.78;80.03;101251.91;5034103;28;20808;-51
2022/05/27 11:44:35;;;;;;;13.50;7.23;;;;;;;15.10;76.33;101238.56;5033902;28;20897;-51
2022/05/27 11:47:36;;;;;;;12.80;6.70;;;;;;;15.20;74.38;101247.00;5033729;28;20456;-47
2022/05/27 11:50:23;;;;;;;13.70;7.00;;;;;;;15.56;72.39;101252.59;5033412;28;20434;-49
2022/05/27 11:53:08;;;;;;;8.50;5.97;;;;;;;15.15;67.34;101249.47;5033469;28;20456;-50
2022/05/27 11:56:04;;;;;;;10.07;5.83;;;;;;;14.95;68.97;101250.41;5033649;28;20470;-49
2022/05/27 11:58:49;;;;;;;13.37;7.23;;;;;;;15.36;71.70;101265.28;5029080;28;20440;-50
2022/05/27 12:01:31;;;;;;;10.77;7.03;;;;;;;15.71;69.89;101249.63;5033647;28;20949;-49
2022/05/27 12:04:06;;;;;;;6.70;6.07;;;;;;;16.00;67.58;101262.44;5033036;28;20466;-49
2022/05/27 12:06:39;;;;;;;8.93;6.27;;;;;;;16.21;65.06;101258.53;5032538;28;20456;-48
2022/05/27 12:09:13;;;;;;;9.50;6.67;;;;;;;16.28;65.10;101254.72;5033718;28;20438;-49
2022/05/27 12:11:46;;;;;;;10.73;6.47;;;;;;;16.44;62.12;101254.16;5033167;28;20420;-46
2022/05/27 12:14:20;;;;;;;10.80;7.23;;;;;;;16.46;62.48;101249.34;5032893;28;20460;-53